LFBE/EGC METAR and TAF weather

Enter ICAO airport designator
Station Type Date Time Source
LFBE METAR 2020/11/27 14:30 UTC NOAA

LFBE 271430Z AUTO 12005KT 080V150 CAVOK 18/11 Q1012 NOSIG


Station Type Date Time Source
LFBE Decoded METAR 2020/11/27 14:30 UTC NOAA

Bergerac, France (LFBE) 44-49N 000-31E 52M
Nov 27, 2020 - 09:30 AM EST / 2020.11.27 1430 UTC
Wind: from the ESE (120 degrees) at 6 MPH (5 KT) (direction variable):0
Visibility: greater than 7 mile(s):0
Temperature: 64 F (18 C)
Dew Point: 51 F (11 C)
Relative Humidity: 63%
Pressure (altimeter): 29.88 in. Hg (1012 hPa)
ob: LFBE 271430Z AUTO 12005KT 080V150 CAVOK 18/11 Q1012 NOSIG
cycle: 14

Station Type Date Time Source
LFBE TAF 2020/11/27 12:42 UTC NOAA

TAF LFBE 271100Z 2712/2812 07007KT CAVOK

Example: see airport list